Time;durP1;ratioP1;P1;durP2;ratioP2;P2;SDS_P1;SDS_P2;PMS_P1;PMS_P2;Temp;Humidity;BMP_temperature;BMP_pressure;BME280_temperature;BME280_humidity;BME280_pressure;Samples;Min_cycle;Max_cycle;Signal;HPM_P1;HPM_P2
2021/03/18 00:01:45;;;;;;;14.20;5.88;;;18.60;74.40;;;;;;4958616;28;95453;-54
2021/03/18 00:04:17;;;;;;;13.85;6.18;;;18.60;74.40;;;;;;4965939;28;96367;-54
2021/03/18 00:06:59;;;;;;;19.38;6.53;;;18.60;74.40;;;;;;4962182;28;95902;-54
2021/03/18 00:09:28;;;;;;;15.98;5.85;;;18.60;74.40;;;;;;4965130;28;96142;-54
2021/03/18 00:11:58;;;;;;;14.82;6.10;;;18.60;74.50;;;;;;4963478;28;96297;-55
2021/03/18 00:14:28;;;;;;;12.05;5.55;;;18.70;74.50;;;;;;4962756;28;96445;-55
2021/03/18 00:16:59;;;;;;;11.30;5.43;;;18.60;74.50;;;;;;4961576;28;95692;-54
2021/03/18 00:19:29;;;;;;;10.20;5.60;;;18.70;74.50;;;;;;4962563;28;96942;-54
2021/03/18 00:22:00;;;;;;;10.25;5.65;;;18.70;74.60;;;;;;4980253;28;95649;-55
2021/03/18 00:24:30;;;;;;;12.50;5.80;;;18.70;74.50;;;;;;4961836;28;96206;-54
2021/03/18 00:27:00;;;;;;;9.98;5.90;;;18.70;74.60;;;;;;4963621;28;95749;-54
2021/03/18 00:29:30;;;;;;;10.77;5.85;;;18.70;74.60;;;;;;4962411;28;96378;-54
2021/03/18 00:32:00;;;;;;;12.65;5.50;;;18.70;74.50;;;;;;4959898;28;96804;-51
2021/03/18 00:34:32;;;;;;;10.05;4.82;;;18.70;74.60;;;;;;4963455;28;96104;-52
2021/03/18 00:37:04;;;;;;;9.95;5.57;;;18.70;74.60;;;;;;4965750;28;95887;-54
2021/03/18 00:39:34;;;;;;;15.10;6.25;;;18.80;74.80;;;;;;4979835;28;98714;-54
2021/03/18 00:42:04;;;;;;;10.52;5.38;;;18.80;74.90;;;;;;4967881;28;97603;-54
2021/03/18 00:44:34;;;;;;;11.93;5.38;;;18.80;75.10;;;;;;4967149;28;95623;-52
2021/03/18 00:47:04;;;;;;;9.40;5.43;;;18.80;75.20;;;;;;4995167;28;96078;-53
2021/03/18 00:49:34;;;;;;;8.47;4.63;;;18.80;75.40;;;;;;4961898;28;98284;-51
2021/03/18 00:52:05;;;;;;;7.82;4.53;;;18.70;75.30;;;;;;5001232;28;95911;-52
2021/03/18 00:54:36;;;;;;;10.55;5.43;;;18.70;75.50;;;;;;4965126;28;97743;-53
2021/03/18 00:57:08;;;;;;;10.70;5.40;;;18.70;75.60;;;;;;4968560;28;96024;-54
2021/03/18 00:59:38;;;;;;;9.57;4.15;;;18.80;75.80;;;;;;4971144;28;96435;-54
2021/03/18 01:02:17;;;;;;;10.95;4.78;;;18.80;75.70;;;;;;4965442;28;95458;-54
2021/03/18 01:04:50;;;;;;;10.32;4.43;;;18.70;75.70;;;;;;4964511;28;97980;-55
2021/03/18 01:07:19;;;;;;;9.20;5.22;;;18.80;75.80;;;;;;4969408;28;95577;-53
2021/03/18 01:09:49;;;;;;;10.85;5.20;;;18.80;75.80;;;;;;4966368;28;98043;-54
2021/03/18 01:12:18;;;;;;;9.52;4.40;;;18.80;75.70;;;;;;4971115;28;96047;-56
2021/03/18 01:14:47;;;;;;;11.13;4.57;;;18.90;75.70;;;;;;4966819;28;95786;-55
2021/03/18 01:17:18;;;;;;;7.88;4.20;;;18.90;75.70;;;;;;4967040;28;98892;-52
2021/03/18 01:19:49;;;;;;;8.43;4.80;;;18.90;75.60;;;;;;4964004;28;96041;-54
2021/03/18 01:22:18;;;;;;;10.02;4.70;;;18.90;75.70;;;;;;4967895;28;95755;-52
2021/03/18 01:24:48;;;;;;;7.95;4.50;;;18.90;75.60;;;;;;4969874;28;95713;-55
2021/03/18 01:27:18;;;;;;;7.38;4.43;;;18.90;76.20;;;;;;4971225;28;95815;-55
2021/03/18 01:29:54;;;;;;;6.65;4.53;;;19.00;75.50;;;;;;4977208;28;96191;-56
2021/03/18 01:32:37;;;;;;;9.40;4.85;;;19.00;75.60;;;;;;4964791;28;95822;-54
2021/03/18 01:35:13;;;;;;;6.93;4.70;;;19.00;75.90;;;;;;4972645;28;95946;-53
2021/03/18 01:37:45;;;;;;;9.00;3.58;;;19.00;75.90;;;;;;4971177;28;96033;-50
2021/03/18 01:40:25;;;;;;;6.88;4.53;;;19.10;76.30;;;;;;4972742;28;96733;-53
2021/03/18 01:42:56;;;;;;;7.28;4.45;;;19.10;76.30;;;;;;4973035;28;95771;-53
2021/03/18 01:45:25;;;;;;;8.80;4.45;;;19.10;76.60;;;;;;4971157;28;98197;-52
2021/03/18 01:47:56;;;;;;;5.70;3.97;;;19.10;76.60;;;;;;5000177;28;101879;-55
2021/03/18 01:50:29;;;;;;;7.85;4.38;;;19.10;76.80;;;;;;4972828;28;96157;-55
2021/03/18 01:53:00;;;;;;;8.18;3.90;;;19.10;76.70;;;;;;4967489;28;95629;-53
2021/03/18 01:55:46;;;;;;;9.82;4.47;;;19.20;77.00;;;;;;4971735;28;95769;-54
2021/03/18 01:58:17;;;;;;;9.30;5.10;;;19.20;77.10;;;;;;4970062;28;95949;-55
2021/03/18 02:00:59;;;;;;;10.90;4.53;;;19.20;77.00;;;;;;4969309;28;97357;-55
2021/03/18 02:03:31;;;;;;;10.93;4.60;;;19.20;77.10;;;;;;4969605;28;95775;-51
2021/03/18 02:06:03;;;;;;;9.27;4.07;;;19.30;77.30;;;;;;4973336;28;95237;-52
2021/03/18 02:08:35;;;;;;;10.93;4.07;;;19.30;77.30;;;;;;4968668;28;95664;-54
2021/03/18 02:11:05;;;;;;;8.20;4.20;;;19.30;77.20;;;;;;4970213;28;96080;-55
2021/03/18 02:13:35;;;;;;;4.55;3.38;;;19.30;77.30;;;;;;4968969;28;95666;-51
2021/03/18 02:16:10;;;;;;;7.78;3.67;;;19.40;77.40;;;;;;4969923;28;96086;-55
2021/03/18 02:18:48;;;;;;;6.32;3.80;;;19.40;77.10;;;;;;4969771;28;97144;-53
2021/03/18 02:21:51;;;;;;;5.28;3.53;;;19.40;77.10;;;;;;4972539;28;96238;-54
2021/03/18 02:24:46;;;;;;;7.97;4.40;;;19.40;77.40;;;;;;4974974;28;95550;-54
2021/03/18 02:27:54;;;;;;;5.47;3.88;;;19.40;77.50;;;;;;4968094;28;95804;-55
2021/03/18 02:30:46;;;;;;;5.93;3.80;;;19.50;77.30;;;;;;4963221;28;95903;-55
2021/03/18 02:33:43;;;;;;;6.60;3.58;;;19.50;77.40;;;;;;4964626;28;98094;-52
2021/03/18 02:36:20;;;;;;;5.20;3.38;;;19.50;77.10;;;;;;4969450;28;95799;-52
2021/03/18 02:38:59;;;;;;;5.63;3.72;;;19.50;77.20;;;;;;4967367;28;96590;-52
2021/03/18 02:41:36;;;;;;;7.43;4.28;;;19.60;77.30;;;;;;4971891;28;95705;-52
2021/03/18 02:44:12;;;;;;;6.10;3.60;;;19.60;77.80;;;;;;4966703;28;96691;-52
2021/03/18 02:46:42;;;;;;;6.90;3.70;;;19.70;77.30;;;;;;4967526;28;95776;-57
2021/03/18 02:49:15;;;;;;;7.93;3.83;;;19.70;77.10;;;;;;4968460;28;95783;-55
2021/03/18 02:51:45;;;;;;;7.13;4.00;;;19.70;77.00;;;;;;4969887;28;95953;-53
2021/03/18 02:54:18;;;;;;;;;;;19.70;76.70;;;;;;4968273;28;96219;-54
2021/03/18 02:56:51;;;;;;;7.43;4.13;;;19.80;76.50;;;;;;4967734;28;95880;-55
2021/03/18 02:59:25;;;;;;;8.65;4.05;;;19.90;76.20;;;;;;4966070;28;96608;-53
2021/03/18 03:01:56;;;;;;;10.77;5.30;;;19.90;76.00;;;;;;4966009;28;95455;-53
2021/03/18 03:04:29;;;;;;;9.23;5.32;;;20.00;76.00;;;;;;4971764;28;96064;-54
2021/03/18 03:07:00;;;;;;;8.90;5.63;;;20.00;75.90;;;;;;4967867;28;96563;-52
2021/03/18 03:09:31;;;;;;;10.40;4.77;;;20.10;76.00;;;;;;5003206;28;95325;-52
2021/03/18 03:12:02;;;;;;;10.50;5.45;;;20.10;75.80;;;;;;4974013;28;95818;-53
2021/03/18 03:14:34;;;;;;;8.88;5.45;;;20.20;75.90;;;;;;4970563;28;96649;-56
2021/03/18 03:17:07;;;;;;;10.02;5.85;;;20.20;75.80;;;;;;4959888;28;95808;-54
2021/03/18 03:19:41;;;;;;;13.73;5.88;;;20.20;75.70;;;;;;4970895;28;95806;-56
2021/03/18 03:22:12;;;;;;;12.95;6.78;;;20.30;75.70;;;;;;4966075;28;96113;-55
2021/03/18 03:24:45;;;;;;;15.40;7.57;;;20.30;75.70;;;;;;4939894;28;98393;-54
2021/03/18 03:27:16;;;;;;;16.15;7.50;;;20.40;76.20;;;;;;4962475;28;95483;-53
2021/03/18 03:29:47;;;;;;;;;;;20.40;75.60;;;;;;4968425;28;95720;-55
2021/03/18 03:32:17;;;;;;;24.95;9.10;;;20.50;75.50;;;;;;4964401;28;95749;-55
2021/03/18 03:34:48;;;;;;;16.38;9.27;;;20.60;75.40;;;;;;4964085;28;96801;-54
2021/03/18 03:37:19;;;;;;;18.38;10.45;;;20.60;75.40;;;;;;4970367;28;96696;-55
2021/03/18 03:39:49;;;;;;;21.27;10.77;;;20.70;75.40;;;;;;4967401;28;95362;-53
2021/03/18 03:42:19;;;;;;;17.88;9.38;;;20.70;75.40;;;;;;4964339;28;96018;-54
2021/03/18 03:44:48;;;;;;;20.08;9.95;;;20.80;75.30;;;;;;4971408;28;96442;-54
2021/03/18 03:47:18;;;;;;;19.60;10.88;;;20.90;75.20;;;;;;4959918;28;96066;-52
2021/03/18 03:49:49;;;;;;;19.30;10.30;;;20.90;75.10;;;;;;4966543;28;95677;-55
2021/03/18 03:52:36;;;;;;;18.53;10.33;;;21.00;75.00;;;;;;4961400;28;95850;-55
2021/03/18 03:55:09;;;;;;;20.23;10.15;;;21.10;74.90;;;;;;4966294;28;96118;-56
2021/03/18 03:57:57;;;;;;;16.20;9.27;;;21.10;74.80;;;;;;4967299;28;95522;-54
2021/03/18 04:00:28;;;;;;;15.90;9.23;;;21.20;74.80;;;;;;4962046;28;95532;-53
2021/03/18 04:03:03;;;;;;;15.40;9.65;;;21.20;74.50;;;;;;4959000;28;95716;-57
2021/03/18 04:05:39;;;;;;;13.32;8.85;;;21.20;74.40;;;;;;4959579;28;95984;-54
2021/03/18 04:08:12;;;;;;;13.50;8.02;;;21.20;74.40;;;;;;4961211;28;96198;-51
2021/03/18 04:10:45;;;;;;;18.02;9.43;;;21.30;74.20;;;;;;4968134;28;95801;-53
2021/03/18 04:13:16;;;;;;;15.32;9.18;;;21.30;74.30;;;;;;4963879;28;95536;-52
2021/03/18 04:15:49;;;;;;;12.63;7.70;;;21.40;74.20;;;;;;4964718;28;95833;-56
2021/03/18 04:18:22;;;;;;;14.80;8.73;;;21.40;74.10;;;;;;4964191;28;96047;-53
2021/03/18 04:20:53;;;;;;;15.52;8.15;;;21.50;74.20;;;;;;4968452;28;97847;-52
2021/03/18 04:23:26;;;;;;;19.75;7.88;;;21.50;74.00;;;;;;4960696;28;95728;-55
2021/03/18 04:26:01;;;;;;;13.52;7.82;;;21.50;74.00;;;;;;4980820;28;96101;-54
2021/03/18 04:28:34;;;;;;;10.40;7.28;;;21.60;73.80;;;;;;4964302;28;95820;-53
2021/03/18 04:31:07;;;;;;;11.02;6.90;;;21.60;73.80;;;;;;4965063;28;95271;-53
2021/03/18 04:33:40;;;;;;;12.27;7.75;;;21.70;73.70;;;;;;4964306;28;95674;-56
2021/03/18 04:36:12;;;;;;;13.48;7.63;;;21.70;73.70;;;;;;4967601;28;96770;-55
2021/03/18 04:38:43;;;;;;;12.02;7.00;;;21.80;73.60;;;;;;4962620;28;95415;-54
2021/03/18 04:41:15;;;;;;;12.13;6.65;;;21.80;73.50;;;;;;4964379;28;95611;-56
2021/03/18 04:43:48;;;;;;;10.82;6.38;;;21.80;73.50;;;;;;4962299;28;95997;-56
2021/03/18 04:46:20;;;;;;;12.52;7.55;;;21.90;73.50;;;;;;4967042;28;96104;-54
2021/03/18 04:48:55;;;;;;;10.68;7.05;;;21.90;73.30;;;;;;4982590;28;95570;-56
2021/03/18 04:51:26;;;;;;;13.55;7.20;;;21.90;73.20;;;;;;4987072;28;95667;-55
2021/03/18 04:53:59;;;;;;;12.18;6.43;;;22.00;73.20;;;;;;4983317;28;95401;-55
2021/03/18 04:56:30;;;;;;;11.82;7.25;;;22.00;73.10;;;;;;4985397;28;96519;-56
2021/03/18 04:58:59;;;;;;;;;;;22.00;73.00;;;;;;4986990;28;95776;-53
2021/03/18 05:01:31;;;;;;;8.07;5.43;;;22.10;72.80;;;;;;4978287;28;96552;-55
2021/03/18 05:04:04;;;;;;;7.63;5.20;;;22.10;72.70;;;;;;4979836;28;95681;-55
2021/03/18 05:06:34;;;;;;;8.15;6.03;;;22.10;72.50;;;;;;4980820;28;97095;-55
2021/03/18 05:09:04;;;;;;;12.15;5.38;;;22.10;72.50;;;;;;4985896;28;97361;-55
2021/03/18 05:11:35;;;;;;;10.00;6.03;;;22.20;72.50;;;;;;4981871;28;95805;-53
2021/03/18 05:14:08;;;;;;;10.02;6.35;;;22.20;72.30;;;;;;4986903;28;96136;-54
2021/03/18 05:16:40;;;;;;;7.75;5.45;;;22.20;72.20;;;;;;4983134;28;98934;-55
2021/03/18 05:19:13;;;;;;;10.85;6.22;;;22.30;72.40;;;;;;4987656;28;95691;-55
2021/03/18 05:21:44;;;;;;;8.80;5.22;;;22.30;72.40;;;;;;4980975;28;98918;-56
2021/03/18 05:24:15;;;;;;;7.25;5.50;;;22.30;72.10;;;;;;4978328;28;95718;-56
2021/03/18 05:26:47;;;;;;;9.70;6.00;;;22.40;71.90;;;;;;4983227;28;96153;-55
2021/03/18 05:29:18;;;;;;;8.20;4.78;;;22.40;72.00;;;;;;4985633;28;95773;-51
2021/03/18 05:31:48;;;;;;;8.25;6.15;;;22.40;72.00;;;;;;4981056;28;97063;-52
2021/03/18 05:34:19;;;;;;;7.35;5.60;;;22.40;71.80;;;;;;4993827;28;95551;-56
2021/03/18 05:36:49;;;;;;;9.35;5.28;;;22.40;71.80;;;;;;4989231;28;96197;-53
2021/03/18 05:39:20;;;;;;;7.20;5.43;;;22.40;71.70;;;;;;4988116;28;95799;-56
2021/03/18 05:41:50;;;;;;;9.40;5.35;;;22.40;71.70;;;;;;4987412;28;95615;-52
2021/03/18 05:44:21;;;;;;;14.03;5.43;;;22.40;71.80;;;;;;4994202;28;95229;-51
2021/03/18 05:46:53;;;;;;;6.97;5.13;;;22.50;71.80;;;;;;4979125;28;97254;-56
2021/03/18 05:49:23;;;;;;;7.25;5.20;;;22.50;71.80;;;;;;5001614;28;95981;-55
2021/03/18 05:51:54;;;;;;;7.93;4.47;;;22.50;71.80;;;;;;4985032;28;96773;-55
2021/03/18 05:54:28;;;;;;;8.77;5.28;;;22.50;71.70;;;;;;4992355;28;95731;-50
2021/03/18 05:56:59;;;;;;;7.13;4.90;;;22.50;71.70;;;;;;4988368;28;96725;-54
2021/03/18 05:59:29;;;;;;;7.15;5.40;;;22.50;71.50;;;;;;4995896;28;95723;-58
2021/03/18 06:01:59;;;;;;;7.68;4.70;;;22.50;71.50;;;;;;4983604;28;96037;-55
2021/03/18 06:04:29;;;;;;;7.10;5.43;;;22.50;71.60;;;;;;4988777;28;95666;-59
2021/03/18 06:06:59;;;;;;;8.40;4.50;;;22.50;71.50;;;;;;4981073;28;96427;-58
2021/03/18 06:09:28;;;;;;;8.00;5.40;;;22.60;71.60;;;;;;4992039;28;95920;-56
2021/03/18 06:11:58;;;;;;;8.48;4.57;;;22.60;71.60;;;;;;4988311;28;95951;-57
2021/03/18 06:14:28;;;;;;;9.85;4.97;;;22.60;71.50;;;;;;4990969;28;95894;-60
2021/03/18 06:16:59;;;;;;;6.60;4.55;;;22.60;71.50;;;;;;4984887;28;96459;-57
2021/03/18 06:19:29;;;;;;;7.70;4.53;;;22.60;71.50;;;;;;4991539;28;97305;-54
2021/03/18 06:21:59;;;;;;;7.05;4.63;;;22.60;71.40;;;;;;4987095;28;95986;-59
2021/03/18 06:24:30;;;;;;;9.93;4.57;;;22.70;71.50;;;;;;4992077;28;96006;-56
2021/03/18 06:27:00;;;;;;;6.78;4.85;;;22.70;71.40;;;;;;4988811;28;96115;-55
2021/03/18 06:29:40;;;;;;;8.00;4.32;;;22.70;71.50;;;;;;4991242;28;96230;-57
2021/03/18 06:32:23;;;;;;;9.05;4.57;;;22.70;71.40;;;;;;4985167;28;96034;-58
2021/03/18 06:34:56;;;;;;;9.40;5.65;;;22.70;71.40;;;;;;5001029;28;95622;-57
2021/03/18 06:37:50;;;;;;;6.15;4.40;;;22.70;71.40;;;;;;4986740;28;96740;-58
2021/03/18 06:40:24;;;;;;;10.85;5.00;;;22.70;71.50;;;;;;4989797;28;95930;-59
2021/03/18 06:42:54;;;;;;;6.57;4.68;;;22.70;71.40;;;;;;4989721;28;95701;-58
2021/03/18 06:45:33;;;;;;;5.60;4.68;;;22.70;71.50;;;;;;4988962;28;95396;-54
2021/03/18 06:48:11;;;;;;;5.32;4.57;;;22.80;71.50;;;;;;4985843;28;102990;-56
2021/03/18 06:50:45;;;;;;;6.63;4.60;;;22.80;71.50;;;;;;4990998;28;95531;-56
2021/03/18 06:53:21;;;;;;;9.30;5.40;;;22.80;71.50;;;;;;4987679;28;95735;-56
2021/03/18 06:55:52;;;;;;;5.63;4.10;;;22.80;71.50;;;;;;4988791;28;95722;-58
2021/03/18 06:58:28;;;;;;;;;;;22.80;71.50;;;;;;4989491;28;96505;-58
2021/03/18 07:01:05;;;;;;;5.57;4.20;;;22.80;71.50;;;;;;4988897;28;96041;-57
2021/03/18 07:03:38;;;;;;;4.72;3.95;;;22.80;71.50;;;;;;4988313;28;96066;-56
2021/03/18 07:06:09;;;;;;;5.00;4.18;;;22.80;71.50;;;;;;5000153;28;95734;-56
2021/03/18 07:08:41;;;;;;;7.20;4.35;;;22.80;71.20;;;;;;4992288;28;96076;-54
2021/03/18 07:11:20;;;;;;;7.10;4.32;;;22.80;71.60;;;;;;4990210;28;95833;-56
2021/03/18 07:13:53;;;;;;;6.32;4.13;;;22.80;72.40;;;;;;4987408;28;95749;-56
2021/03/18 07:16:24;;;;;;;5.93;3.95;;;22.80;71.70;;;;;;4985439;28;95855;-54
2021/03/18 07:18:57;;;;;;;5.72;3.95;;;22.80;71.60;;;;;;4998809;28;101278;-54
2021/03/18 07:21:40;;;;;;;5.32;3.55;;;22.80;71.50;;;;;;4988872;28;95908;-55
2021/03/18 07:24:25;;;;;;;4.35;3.95;;;22.80;71.50;;;;;;4988432;28;96379;-56
2021/03/18 07:26:59;;;;;;;5.15;4.07;;;22.90;71.60;;;;;;4989322;28;95753;-55
2021/03/18 07:29:31;;;;;;;5.38;3.90;;;22.90;71.40;;;;;;4986465;28;97059;-55
2021/03/18 07:32:03;;;;;;;4.80;3.42;;;22.90;71.40;;;;;;4989969;28;95961;-54
2021/03/18 07:34:34;;;;;;;4.25;3.63;;;22.90;71.50;;;;;;5005183;28;101653;-56
2021/03/18 07:37:13;;;;;;;4.38;3.80;;;22.90;71.60;;;;;;4993273;28;95323;-56
2021/03/18 07:39:43;;;;;;;7.15;4.40;;;22.90;71.60;;;;;;4985879;28;96205;-52
2021/03/18 07:42:13;;;;;;;4.90;3.80;;;22.90;71.50;;;;;;4993360;28;95727;-57
2021/03/18 07:44:45;;;;;;;5.35;3.67;;;22.90;71.50;;;;;;4987616;28;96101;-56
2021/03/18 07:47:18;;;;;;;5.30;3.70;;;22.90;71.50;;;;;;4987725;28;95872;-54
2021/03/18 07:49:49;;;;;;;6.88;4.60;;;22.90;71.60;;;;;;4991823;28;102281;-51
2021/03/18 07:52:21;;;;;;;;;;;22.90;71.50;;;;;;4994426;28;95770;-55
2021/03/18 07:54:53;;;;;;;6.50;3.50;;;22.90;71.50;;;;;;4994949;28;95773;-55
2021/03/18 07:57:24;;;;;;;5.65;3.45;;;23.00;71.50;;;;;;4998285;28;95903;-53
2021/03/18 08:00:09;;;;;;;4.38;3.53;;;23.00;71.50;;;;;;4990378;28;96928;-52
2021/03/18 08:02:41;;;;;;;6.72;4.35;;;22.90;71.50;;;;;;4988741;28;95861;-56
2021/03/18 08:05:11;;;;;;;4.00;3.42;;;23.00;71.60;;;;;;4984952;28;95928;-55
2021/03/18 08:07:49;;;;;;;7.63;3.60;;;23.00;71.60;;;;;;4988747;28;95971;-56
2021/03/18 08:10:25;;;;;;;10.32;3.90;;;23.00;71.60;;;;;;4986254;28;96767;-55
2021/03/18 08:12:57;;;;;;;5.68;3.55;;;23.00;71.60;;;;;;4993756;28;95863;-55
2021/03/18 08:15:31;;;;;;;8.82;4.78;;;22.90;71.50;;;;;;4990240;28;95955;-54
2021/03/18 08:18:23;;;;;;;14.82;4.72;;;23.00;71.80;;;;;;4992667;28;95751;-51
2021/03/18 08:20:58;;;;;;;8.05;4.55;;;23.00;71.80;;;;;;4982267;27;96908;-51
2021/03/18 08:23:40;;;;;;;20.38;8.57;;;23.00;71.60;;;;;;4991600;28;96474;-51
2021/03/18 08:26:13;;;;;;;24.23;12.48;;;23.00;70.70;;;;;;4985581;28;95859;-53
2021/03/18 08:29:00;;;;;;;34.08;17.15;;;22.80;68.10;;;;;;4995334;28;95791;-53
2021/03/18 08:31:33;;;;;;;29.10;16.77;;;22.60;67.30;;;;;;4980510;28;96861;-54
2021/03/18 08:34:04;;;;;;;25.95;14.57;;;22.40;67.60;;;;;;4991574;28;96779;-58
2021/03/18 08:36:53;;;;;;;25.95;15.60;;;22.40;68.70;;;;;;4984190;28;96115;-54
2021/03/18 08:39:49;;;;;;;35.85;15.85;;;22.30;67.70;;;;;;5004917;28;95674;-52
2021/03/18 08:42:31;;;;;;;29.20;15.43;;;22.30;68.10;;;;;;4985227;28;96525;-51
2021/03/18 08:45:05;;;;;;;24.58;14.60;;;22.30;67.80;;;;;;4988129;28;95778;-52
2021/03/18 08:47:41;;;;;;;21.35;14.07;;;22.20;67.20;;;;;;4988820;28;95957;-51
2021/03/18 08:50:34;;;;;;;24.58;16.15;;;22.10;68.10;;;;;;4993224;28;95797;-51
2021/03/18 08:53:28;;;;;;;22.77;12.75;;;22.10;68.30;;;;;;4980677;28;96647;-52
2021/03/18 08:56:00;;;;;;;23.88;13.82;;;22.00;68.20;;;;;;4993398;28;95928;-50
2021/03/18 08:58:29;;;;;;;24.60;14.13;;;22.00;68.90;;;;;;4996820;28;95779;-52
2021/03/18 09:00:59;;;;;;;22.10;12.30;;;22.00;68.70;;;;;;4989124;28;95935;-50
2021/03/18 09:03:29;;;;;;;17.52;11.32;;;21.90;69.10;;;;;;4993767;28;96139;-50
2021/03/18 09:05:59;;;;;;;16.45;12.20;;;21.90;68.90;;;;;;4994397;28;96006;-52
2021/03/18 09:08:31;;;;;;;18.35;11.82;;;21.90;68.80;;;;;;4984965;28;96010;-51
2021/03/18 09:11:04;;;;;;;14.82;10.65;;;21.80;70.00;;;;;;4992037;28;95814;-51
2021/03/18 09:13:38;;;;;;;16.25;10.82;;;21.80;69.50;;;;;;4993451;28;96936;-53
2021/03/18 09:16:20;;;;;;;23.73;10.90;;;21.80;69.90;;;;;;4992785;28;95883;-51
2021/03/18 09:18:59;;;;;;;19.58;10.30;;;21.80;70.20;;;;;;4989317;28;96186;-51
2021/03/18 09:21:41;;;;;;;13.68;9.90;;;21.70;70.80;;;;;;4993789;28;95216;-51
2021/03/18 09:24:12;;;;;;;15.25;8.95;;;21.70;70.20;;;;;;4984442;28;96612;-50
2021/03/18 09:26:45;;;;;;;14.23;10.10;;;21.70;70.40;;;;;;4989555;28;96213;-54
2021/03/18 09:29:26;;;;;;;14.15;9.15;;;21.70;71.50;;;;;;4993401;28;95605;-52
2021/03/18 09:32:13;;;;;;;14.65;9.82;;;21.60;71.10;;;;;;4981086;28;95257;-51
2021/03/18 09:34:48;;;;;;;16.98;9.45;;;21.70;71.90;;;;;;4994792;28;96635;-52
2021/03/18 09:37:36;;;;;;;13.05;9.25;;;21.70;72.30;;;;;;4989605;28;95909;-54
2021/03/18 09:40:10;;;;;;;12.02;7.50;;;21.60;71.20;;;;;;4984903;28;95678;-55
2021/03/18 09:42:41;;;;;;;12.07;9.13;;;21.60;71.20;;;;;;4986455;28;95884;-55
2021/03/18 09:45:17;;;;;;;;;;;21.60;71.40;;;;;;4991553;28;96951;-51
2021/03/18 09:47:52;;;;;;;16.30;9.20;;;21.50;70.80;;;;;;4992692;28;97513;-51
2021/03/18 09:50:28;;;;;;;17.17;8.57;;;21.40;71.40;;;;;;5003796;28;95876;-50
2021/03/18 09:53:10;;;;;;;18.50;9.13;;;21.40;71.30;;;;;;4998147;28;96118;-51
2021/03/18 09:55:41;;;;;;;15.30;8.70;;;21.40;71.30;;;;;;4997372;28;96788;-51
2021/03/18 09:58:17;;;;;;;14.18;8.10;;;21.20;71.40;;;;;;4988141;28;96581;-52
2021/03/18 10:00:47;;;;;;;14.35;7.90;;;21.20;71.50;;;;;;4991483;28;95856;-51
2021/03/18 10:03:17;;;;;;;14.48;8.35;;;21.10;71.80;;;;;;4994305;28;95651;-51
2021/03/18 10:05:47;;;;;;;;;;;21.10;71.90;;;;;;5000251;28;99112;-52
2021/03/18 10:08:23;;;;;;;13.40;6.95;;;21.10;71.80;;;;;;4994276;28;95888;-53
2021/03/18 10:10:52;;;;;;;12.10;7.68;;;21.10;71.60;;;;;;5007701;28;95900;-50
2021/03/18 10:13:23;;;;;;;17.38;8.57;;;21.10;72.00;;;;;;4983782;28;96759;-49
2021/03/18 10:15:55;;;;;;;15.50;9.05;;;21.10;71.60;;;;;;4986037;28;96555;-49
2021/03/18 10:18:24;;;;;;;17.50;8.02;;;21.00;71.90;;;;;;4987819;28;96871;-49
2021/03/18 10:20:55;;;;;;;15.75;8.68;;;21.00;72.10;;;;;;4992358;28;95742;-50
2021/03/18 10:23:26;;;;;;;14.55;8.15;;;20.90;72.40;;;;;;4988387;28;95708;-48
2021/03/18 10:25:56;;;;;;;14.63;8.07;;;20.90;72.20;;;;;;4987638;28;96171;-51
2021/03/18 10:28:31;;;;;;;13.88;7.93;;;20.80;72.40;;;;;;4988866;28;95987;-50
2021/03/18 10:31:07;;;;;;;10.85;7.32;;;20.80;72.60;;;;;;4987553;28;96061;-52
2021/03/18 10:33:38;;;;;;;13.95;8.73;;;20.80;72.90;;;;;;4990436;28;95835;-48
2021/03/18 10:36:09;;;;;;;13.45;8.20;;;20.80;72.90;;;;;;4994835;28;96317;-50
2021/03/18 10:38:41;;;;;;;14.38;9.27;;;20.70;72.70;;;;;;4992913;28;95540;-51
2021/03/18 10:41:14;;;;;;;16.27;9.23;;;20.70;73.00;;;;;;4999309;28;95234;-51
2021/03/18 10:43:48;;;;;;;16.73;8.52;;;20.70;73.00;;;;;;4992030;28;96240;-49
2021/03/18 10:46:30;;;;;;;16.27;8.40;;;20.60;73.10;;;;;;4986934;28;96152;-49
2021/03/18 10:49:04;;;;;;;17.08;8.35;;;20.60;73.00;;;;;;4989807;28;95942;-49
2021/03/18 10:51:47;;;;;;;15.20;8.20;;;20.60;73.30;;;;;;4990330;28;95308;-51
2021/03/18 10:54:23;;;;;;;22.80;8.13;;;20.60;73.30;;;;;;4990900;28;95979;-48
2021/03/18 10:57:01;;;;;;;17.20;9.02;;;20.60;73.20;;;;;;5004078;28;96858;-49
2021/03/18 10:59:33;;;;;;;20.83;9.52;;;20.50;73.20;;;;;;5009707;28;95775;-51
2021/03/18 11:02:05;;;;;;;18.42;8.18;;;20.50;73.20;;;;;;5001675;28;95753;-51
2021/03/18 11:04:57;;;;;;;17.25;9.65;;;20.40;73.50;;;;;;4988624;28;95385;-50
2021/03/18 11:07:27;;;;;;;15.37;8.47;;;20.30;73.50;;;;;;4991626;28;96142;-53
2021/03/18 11:10:16;;;;;;;17.15;8.93;;;20.20;73.50;;;;;;4993552;28;95809;-50
2021/03/18 11:12:59;;;;;;;22.75;8.65;;;20.30;73.90;;;;;;4983174;28;95625;-53
2021/03/18 11:15:45;;;;;;;20.35;8.27;;;20.20;73.80;;;;;;4980031;28;97117;-52
2021/03/18 11:18:17;;;;;;;13.30;8.32;;;20.20;73.80;;;;;;4984967;28;96878;-50
2021/03/18 11:20:47;;;;;;;15.85;8.93;;;20.20;74.40;;;;;;4989138;28;95646;-49
2021/03/18 11:23:26;;;;;;;20.95;8.82;;;20.20;74.50;;;;;;4986074;28;96511;-49
2021/03/18 11:26:00;;;;;;;17.80;7.85;;;20.20;74.00;;;;;;4981598;28;95799;-49
2021/03/18 11:28:31;;;;;;;25.45;8.75;;;20.10;74.00;;;;;;4986812;28;96855;-50
2021/03/18 11:31:11;;;;;;;;;;;20.10;74.00;;;;;;4986048;28;95777;-52
2021/03/18 11:33:43;;;;;;;19.17;8.90;;;20.10;74.40;;;;;;4986774;28;95634;-49
2021/03/18 11:36:13;;;;;;;16.53;8.27;;;20.00;74.40;;;;;;4989422;28;95712;-51
2021/03/18 11:38:45;;;;;;;24.85;8.75;;;20.00;74.40;;;;;;4985300;28;95835;-51
2021/03/18 11:41:17;;;;;;;20.08;8.60;;;19.90;74.40;;;;;;4986212;28;95884;-51
2021/03/18 11:43:47;;;;;;;19.80;7.55;;;19.90;74.30;;;;;;4979716;28;96605;-48
2021/03/18 11:46:19;;;;;;;21.40;9.55;;;19.80;74.80;;;;;;4982336;28;98078;-49
2021/03/18 11:48:49;;;;;;;19.00;7.75;;;19.90;74.60;;;;;;4987808;28;97149;-49
2021/03/18 11:51:21;;;;;;;16.55;8.60;;;19.90;74.50;;;;;;4989091;28;95775;-51
2021/03/18 11:53:53;;;;;;;13.73;7.80;;;19.80;74.60;;;;;;4984634;28;96867;-52
2021/03/18 11:56:24;;;;;;;10.70;7.47;;;19.80;74.80;;;;;;4988903;28;95835;-49
2021/03/18 11:58:54;;;;;;;16.00;7.15;;;19.80;74.80;;;;;;4997039;28;96761;-53
2021/03/18 12:01:24;;;;;;;14.90;7.97;;;19.80;74.60;;;;;;4976298;28;95892;-50
2021/03/18 12:03:54;;;;;;;12.45;7.00;;;19.80;74.70;;;;;;4994030;28;95799;-51
2021/03/18 12:06:24;;;;;;;16.85;8.32;;;19.70;74.90;;;;;;4989654;28;95718;-49
2021/03/18 12:08:55;;;;;;;10.00;6.25;;;19.60;75.40;;;;;;4991023;28;96400;-51
2021/03/18 12:11:24;;;;;;;12.52;6.97;;;19.60;75.00;;;;;;4985754;28;96138;-49
2021/03/18 12:13:53;;;;;;;11.82;7.13;;;19.50;75.10;;;;;;4991186;28;95827;-53
2021/03/18 12:16:24;;;;;;;15.30;7.13;;;19.50;75.50;;;;;;4978024;28;96637;-50
2021/03/18 12:18:55;;;;;;;13.18;6.95;;;19.50;75.60;;;;;;4986898;28;96672;-52
2021/03/18 12:21:25;;;;;;;12.70;6.95;;;19.50;75.80;;;;;;4986886;28;96470;-50
2021/03/18 12:23:54;;;;;;;14.07;6.93;;;19.40;76.40;;;;;;4988410;28;95855;-49
2021/03/18 12:26:23;;;;;;;11.68;7.03;;;19.40;76.20;;;;;;4989462;28;95882;-51
2021/03/18 12:28:54;;;;;;;13.73;7.38;;;19.50;76.10;;;;;;4984009;28;96442;-52
2021/03/18 12:31:25;;;;;;;14.15;7.40;;;19.50;75.50;;;;;;4990419;28;97106;-49
2021/03/18 12:33:57;;;;;;;10.23;6.75;;;19.40;76.00;;;;;;4986824;28;95688;-51
2021/03/18 12:36:27;;;;;;;15.25;7.22;;;19.30;76.00;;;;;;4988229;28;95891;-50
2021/03/18 12:38:58;;;;;;;15.27;6.93;;;19.30;76.50;;;;;;4982531;28;96863;-51
2021/03/18 12:41:33;;;;;;;17.58;6.63;;;19.30;77.20;;;;;;4982900;28;95560;-54
2021/03/18 12:44:04;;;;;;;14.88;6.97;;;19.30;76.30;;;;;;4982445;28;96011;-50
2021/03/18 12:46:34;;;;;;;12.38;7.28;;;19.30;76.30;;;;;;4973579;28;97252;-49
2021/03/18 12:49:07;;;;;;;14.45;6.88;;;19.20;76.20;;;;;;4962529;28;96893;-53
2021/03/18 12:51:39;;;;;;;12.57;6.30;;;19.20;77.10;;;;;;4966043;28;95950;-49
2021/03/18 12:54:13;;;;;;;11.85;5.97;;;19.20;76.40;;;;;;4966914;28;96539;-59
2021/03/18 12:56:43;;;;;;;16.88;6.88;;;19.00;77.00;;;;;;4983340;28;95742;-50
2021/03/18 12:59:13;;;;;;;16.55;6.60;;;19.00;77.00;;;;;;4971757;28;95852;-52
2021/03/18 13:01:43;;;;;;;11.93;6.32;;;18.90;77.10;;;;;;4963635;28;96081;-50
2021/03/18 13:04:13;;;;;;;13.88;6.78;;;19.00;77.40;;;;;;4966528;28;102196;-54
2021/03/18 13:06:43;;;;;;;11.73;6.05;;;19.00;77.20;;;;;;4968594;28;95531;-52
2021/03/18 13:09:13;;;;;;;10.43;6.28;;;19.00;77.20;;;;;;4966171;28;96143;-54
2021/03/18 13:11:50;;;;;;;11.73;6.30;;;19.00;76.90;;;;;;4969149;28;95853;-52
2021/03/18 13:14:20;;;;;;;15.52;6.40;;;19.00;76.70;;;;;;4966536;28;95677;-53